sensor_id;sensor_type;location;lat;lon;timestamp;P1;durP1;ratioP1;P2;durP2;ratioP2
48665;SDS011;34452;50.796;4.994;2023-08-24T00:01:44;4.82;;;3.08;;
48665;SDS011;34452;50.796;4.994;2023-08-24T00:04:10;13.30;;;3.75;;
48665;SDS011;34452;50.796;4.994;2023-08-24T00:06:35;5.97;;;3.30;;
48665;SDS011;34452;50.796;4.994;2023-08-24T00:09:01;6.35;;;3.88;;
48665;SDS011;34452;50.796;4.994;2023-08-24T00:11:29;6.80;;;3.67;;
48665;SDS011;34452;50.796;4.994;2023-08-24T00:13:55;12.88;;;3.97;;
48665;SDS011;34452;50.796;4.994;2023-08-24T00:16:21;6.53;;;4.05;;
48665;SDS011;34452;50.796;4.994;2023-08-24T00:18:47;9.00;;;4.13;;
48665;SDS011;34452;50.796;4.994;2023-08-24T00:23:42;6.25;;;4.22;;
48665;SDS011;34452;50.796;4.994;2023-08-24T00:26:08;7.47;;;3.70;;
48665;SDS011;34452;50.796;4.994;2023-08-24T00:28:34;10.68;;;5.03;;
48665;SDS011;34452;50.796;4.994;2023-08-24T00:31:00;14.93;;;4.68;;
48665;SDS011;34452;50.796;4.994;2023-08-24T00:33:26;4.90;;;3.28;;
48665;SDS011;34452;50.796;4.994;2023-08-24T00:35:51;10.05;;;4.03;;
48665;SDS011;34452;50.796;4.994;2023-08-24T00:38:17;7.68;;;3.60;;
48665;SDS011;34452;50.796;4.994;2023-08-24T00:40:43;6.07;;;3.67;;
48665;SDS011;34452;50.796;4.994;2023-08-24T00:43:09;13.13;;;4.22;;
48665;SDS011;34452;50.796;4.994;2023-08-24T00:45:35;9.27;;;3.88;;
48665;SDS011;34452;50.796;4.994;2023-08-24T00:50:27;15.32;;;4.10;;
48665;SDS011;34452;50.796;4.994;2023-08-24T00:52:53;14.52;;;4.78;;
48665;SDS011;34452;50.796;4.994;2023-08-24T00:55:20;9.10;;;3.85;;
48665;SDS011;34452;50.796;4.994;2023-08-24T00:57:46;8.68;;;4.65;;
48665;SDS011;34452;50.796;4.994;2023-08-24T01:00:13;11.98;;;4.38;;
48665;SDS011;34452;50.796;4.994;2023-08-24T01:02:40;6.82;;;4.60;;
48665;SDS011;34452;50.796;4.994;2023-08-24T01:05:06;7.38;;;4.85;;
48665;SDS011;34452;50.796;4.994;2023-08-24T01:10:02;11.23;;;4.88;;
48665;SDS011;34452;50.796;4.994;2023-08-24T01:15:13;8.50;;;5.13;;
48665;SDS011;34452;50.796;4.994;2023-08-24T01:17:44;8.77;;;4.78;;
48665;SDS011;34452;50.796;4.994;2023-08-24T01:20:12;13.73;;;5.28;;
48665;SDS011;34452;50.796;4.994;2023-08-24T01:28:41;14.27;;;5.22;;
48665;SDS011;34452;50.796;4.994;2023-08-24T01:31:09;11.68;;;5.07;;
48665;SDS011;34452;50.796;4.994;2023-08-24T01:33:35;14.55;;;5.85;;
48665;SDS011;34452;50.796;4.994;2023-08-24T01:36:01;20.13;;;5.45;;
48665;SDS011;34452;50.796;4.994;2023-08-24T01:38:27;11.65;;;5.85;;
48665;SDS011;34452;50.796;4.994;2023-08-24T01:43:20;9.52;;;5.50;;
48665;SDS011;34452;50.796;4.994;2023-08-24T01:45:49;9.38;;;5.18;;
48665;SDS011;34452;50.796;4.994;2023-08-24T01:48:16;9.82;;;5.18;;
48665;SDS011;34452;50.796;4.994;2023-08-24T01:50:42;10.48;;;5.18;;
48665;SDS011;34452;50.796;4.994;2023-08-24T01:53:10;10.15;;;4.80;;
48665;SDS011;34452;50.796;4.994;2023-08-24T01:55:36;11.15;;;5.57;;
48665;SDS011;34452;50.796;4.994;2023-08-24T01:58:02;18.83;;;6.35;;
48665;SDS011;34452;50.796;4.994;2023-08-24T02:00:28;14.07;;;5.47;;
48665;SDS011;34452;50.796;4.994;2023-08-24T02:02:53;12.75;;;5.60;;
48665;SDS011;34452;50.796;4.994;2023-08-24T02:05:19;10.77;;;5.63;;
48665;SDS011;34452;50.796;4.994;2023-08-24T02:07:45;13.57;;;5.78;;
48665;SDS011;34452;50.796;4.994;2023-08-24T02:10:11;10.73;;;6.10;;
48665;SDS011;34452;50.796;4.994;2023-08-24T02:12:36;10.75;;;5.70;;
48665;SDS011;34452;50.796;4.994;2023-08-24T02:15:02;9.13;;;4.50;;
48665;SDS011;34452;50.796;4.994;2023-08-24T02:17:28;10.02;;;5.40;;
48665;SDS011;34452;50.796;4.994;2023-08-24T02:19:54;10.75;;;5.57;;
48665;SDS011;34452;50.796;4.994;2023-08-24T02:22:20;10.90;;;5.28;;
48665;SDS011;34452;50.796;4.994;2023-08-24T02:24:46;16.02;;;5.95;;
48665;SDS011;34452;50.796;4.994;2023-08-24T02:27:12;9.63;;;5.28;;
48665;SDS011;34452;50.796;4.994;2023-08-24T02:29:37;9.90;;;5.30;;
48665;SDS011;34452;50.796;4.994;2023-08-24T02:34:30;9.77;;;5.90;;
48665;SDS011;34452;50.796;4.994;2023-08-24T02:36:56;9.13;;;6.07;;
48665;SDS011;34452;50.796;4.994;2023-08-24T02:39:22;14.52;;;6.40;;
48665;SDS011;34452;50.796;4.994;2023-08-24T02:41:48;11.25;;;6.70;;
48665;SDS011;34452;50.796;4.994;2023-08-24T02:44:14;12.32;;;6.53;;
48665;SDS011;34452;50.796;4.994;2023-08-24T02:46:40;15.70;;;7.25;;
48665;SDS011;34452;50.796;4.994;2023-08-24T02:49:07;25.33;;;8.65;;
48665;SDS011;34452;50.796;4.994;2023-08-24T02:51:33;11.60;;;6.72;;
48665;SDS011;34452;50.796;4.994;2023-08-24T02:53:58;16.25;;;7.03;;
48665;SDS011;34452;50.796;4.994;2023-08-24T02:56:24;14.70;;;7.20;;
48665;SDS011;34452;50.796;4.994;2023-08-24T02:58:50;13.73;;;7.05;;
48665;SDS011;34452;50.796;4.994;2023-08-24T03:01:16;14.77;;;7.78;;
48665;SDS011;34452;50.796;4.994;2023-08-24T03:03:41;13.20;;;7.63;;
48665;SDS011;34452;50.796;4.994;2023-08-24T03:06:07;24.02;;;7.85;;
48665;SDS011;34452;50.796;4.994;2023-08-24T03:08:33;26.25;;;10.25;;
48665;SDS011;34452;50.796;4.994;2023-08-24T03:11:00;15.07;;;7.80;;
48665;SDS011;34452;50.796;4.994;2023-08-24T03:13:27;20.75;;;8.57;;
48665;SDS011;34452;50.796;4.994;2023-08-24T03:15:53;22.70;;;9.27;;
48665;SDS011;34452;50.796;4.994;2023-08-24T03:18:20;18.75;;;9.73;;
48665;SDS011;34452;50.796;4.994;2023-08-24T03:23:12;15.65;;;8.63;;
48665;SDS011;34452;50.796;4.994;2023-08-24T03:25:39;14.95;;;7.38;;
48665;SDS011;34452;50.796;4.994;2023-08-24T03:28:06;16.70;;;6.93;;
48665;SDS011;34452;50.796;4.994;2023-08-24T03:30:33;11.98;;;6.88;;
48665;SDS011;34452;50.796;4.994;2023-08-24T03:33:01;14.25;;;6.43;;
48665;SDS011;34452;50.796;4.994;2023-08-24T03:35:28;20.25;;;7.65;;
48665;SDS011;34452;50.796;4.994;2023-08-24T03:37:55;12.07;;;6.85;;
48665;SDS011;34452;50.796;4.994;2023-08-24T03:40:21;14.13;;;7.00;;
48665;SDS011;34452;50.796;4.994;2023-08-24T03:42:47;15.30;;;7.78;;
48665;SDS011;34452;50.796;4.994;2023-08-24T03:45:12;12.10;;;7.72;;
48665;SDS011;34452;50.796;4.994;2023-08-24T03:47:38;20.02;;;8.05;;
48665;SDS011;34452;50.796;4.994;2023-08-24T03:50:04;18.05;;;8.18;;
48665;SDS011;34452;50.796;4.994;2023-08-24T03:52:30;16.33;;;7.97;;
48665;SDS011;34452;50.796;4.994;2023-08-24T03:54:56;14.18;;;7.75;;
48665;SDS011;34452;50.796;4.994;2023-08-24T03:57:22;17.90;;;7.10;;
48665;SDS011;34452;50.796;4.994;2023-08-24T03:59:48;17.08;;;8.43;;
48665;SDS011;34452;50.796;4.994;2023-08-24T04:02:14;17.35;;;8.48;;
48665;SDS011;34452;50.796;4.994;2023-08-24T04:04:40;18.58;;;8.57;;
48665;SDS011;34452;50.796;4.994;2023-08-24T04:07:05;20.90;;;9.48;;
48665;SDS011;34452;50.796;4.994;2023-08-24T04:09:31;24.85;;;9.02;;
48665;SDS011;34452;50.796;4.994;2023-08-24T04:11:57;18.65;;;8.57;;
48665;SDS011;34452;50.796;4.994;2023-08-24T04:14:23;15.15;;;8.32;;
48665;SDS011;34452;50.796;4.994;2023-08-24T04:16:48;10.93;;;8.07;;
48665;SDS011;34452;50.796;4.994;2023-08-24T04:19:14;22.05;;;8.55;;
48665;SDS011;34452;50.796;4.994;2023-08-24T04:21:40;13.52;;;9.40;;
48665;SDS011;34452;50.796;4.994;2023-08-24T04:26:32;13.43;;;7.47;;
48665;SDS011;34452;50.796;4.994;2023-08-24T04:28:58;20.02;;;8.23;;
48665;SDS011;34452;50.796;4.994;2023-08-24T04:31:23;16.45;;;8.52;;
48665;SDS011;34452;50.796;4.994;2023-08-24T04:33:49;12.20;;;7.75;;
48665;SDS011;34452;50.796;4.994;2023-08-24T04:36:15;14.23;;;7.55;;
48665;SDS011;34452;50.796;4.994;2023-08-24T04:38:40;11.63;;;7.85;;
48665;SDS011;34452;50.796;4.994;2023-08-24T04:41:08;15.63;;;7.88;;
48665;SDS011;34452;50.796;4.994;2023-08-24T04:43:34;12.68;;;7.40;;
48665;SDS011;34452;50.796;4.994;2023-08-24T04:46:01;18.33;;;9.10;;
48665;SDS011;34452;50.796;4.994;2023-08-24T04:48:28;12.48;;;7.88;;
48665;SDS011;34452;50.796;4.994;2023-08-24T04:51:07;14.75;;;8.13;;
48665;SDS011;34452;50.796;4.994;2023-08-24T04:55:59;21.02;;;10.27;;
48665;SDS011;34452;50.796;4.994;2023-08-24T04:58:25;18.58;;;9.45;;
48665;SDS011;34452;50.796;4.994;2023-08-24T05:00:51;20.88;;;8.73;;
48665;SDS011;34452;50.796;4.994;2023-08-24T05:03:17;11.80;;;8.27;;
48665;SDS011;34452;50.796;4.994;2023-08-24T05:05:44;21.10;;;9.10;;
48665;SDS011;34452;50.796;4.994;2023-08-24T05:10:36;18.10;;;9.32;;
48665;SDS011;34452;50.796;4.994;2023-08-24T05:13:02;19.17;;;9.43;;
48665;SDS011;34452;50.796;4.994;2023-08-24T05:15:28;26.05;;;10.50;;
48665;SDS011;34452;50.796;4.994;2023-08-24T05:17:54;18.48;;;10.95;;
48665;SDS011;34452;50.796;4.994;2023-08-24T05:20:21;17.30;;;9.07;;
48665;SDS011;34452;50.796;4.994;2023-08-24T05:22:47;18.40;;;11.38;;
48665;SDS011;34452;50.796;4.994;2023-08-24T05:25:13;21.17;;;10.10;;
48665;SDS011;34452;50.796;4.994;2023-08-24T05:27:41;14.85;;;9.23;;
48665;SDS011;34452;50.796;4.994;2023-08-24T05:30:07;17.75;;;9.00;;
48665;SDS011;34452;50.796;4.994;2023-08-24T05:32:34;15.00;;;8.18;;
48665;SDS011;34452;50.796;4.994;2023-08-24T05:35:04;17.15;;;10.00;;
48665;SDS011;34452;50.796;4.994;2023-08-24T05:37:30;16.63;;;9.07;;
48665;SDS011;34452;50.796;4.994;2023-08-24T05:39:56;14.18;;;8.27;;
48665;SDS011;34452;50.796;4.994;2023-08-24T05:42:22;18.92;;;9.43;;
48665;SDS011;34452;50.796;4.994;2023-08-24T05:44:48;16.52;;;8.68;;
48665;SDS011;34452;50.796;4.994;2023-08-24T05:47:14;16.05;;;9.75;;
48665;SDS011;34452;50.796;4.994;2023-08-24T05:49:40;18.83;;;9.05;;
48665;SDS011;34452;50.796;4.994;2023-08-24T05:52:06;17.75;;;10.13;;
48665;SDS011;34452;50.796;4.994;2023-08-24T05:54:32;12.70;;;9.00;;
48665;SDS011;34452;50.796;4.994;2023-08-24T05:56:57;21.70;;;10.02;;
48665;SDS011;34452;50.796;4.994;2023-08-24T05:59:26;16.40;;;8.57;;
48665;SDS011;34452;50.796;4.994;2023-08-24T06:01:52;13.45;;;8.60;;
48665;SDS011;34452;50.796;4.994;2023-08-24T06:04:18;16.23;;;8.85;;
48665;SDS011;34452;50.796;4.994;2023-08-24T06:06:43;17.08;;;8.85;;
48665;SDS011;34452;50.796;4.994;2023-08-24T06:09:09;16.58;;;8.68;;
48665;SDS011;34452;50.796;4.994;2023-08-24T06:11:35;15.70;;;8.45;;
48665;SDS011;34452;50.796;4.994;2023-08-24T06:14:01;18.58;;;8.80;;
48665;SDS011;34452;50.796;4.994;2023-08-24T06:16:27;14.05;;;7.93;;
48665;SDS011;34452;50.796;4.994;2023-08-24T06:18:54;13.43;;;8.25;;
48665;SDS011;34452;50.796;4.994;2023-08-24T06:21:19;18.38;;;8.85;;
48665;SDS011;34452;50.796;4.994;2023-08-24T06:23:45;17.45;;;9.98;;
48665;SDS011;34452;50.796;4.994;2023-08-24T06:26:12;13.32;;;8.10;;
48665;SDS011;34452;50.796;4.994;2023-08-24T06:28:38;14.75;;;8.30;;
48665;SDS011;34452;50.796;4.994;2023-08-24T06:31:05;14.52;;;8.27;;
48665;SDS011;34452;50.796;4.994;2023-08-24T06:33:33;15.10;;;8.80;;
48665;SDS011;34452;50.796;4.994;2023-08-24T06:35:59;17.40;;;9.73;;
48665;SDS011;34452;50.796;4.994;2023-08-24T06:38:27;22.05;;;9.18;;
48665;SDS011;34452;50.796;4.994;2023-08-24T06:40:54;18.50;;;7.57;;
48665;SDS011;34452;50.796;4.994;2023-08-24T06:43:19;20.40;;;7.90;;
48665;SDS011;34452;50.796;4.994;2023-08-24T06:45:45;13.50;;;7.50;;
48665;SDS011;34452;50.796;4.994;2023-08-24T06:48:11;14.20;;;6.65;;
48665;SDS011;34452;50.796;4.994;2023-08-24T06:50:36;12.95;;;7.57;;
48665;SDS011;34452;50.796;4.994;2023-08-24T06:53:03;18.67;;;7.63;;
48665;SDS011;34452;50.796;4.994;2023-08-24T06:55:29;13.30;;;7.93;;
48665;SDS011;34452;50.796;4.994;2023-08-24T06:57:55;11.02;;;5.45;;
48665;SDS011;34452;50.796;4.994;2023-08-24T07:00:21;20.73;;;7.97;;
48665;SDS011;34452;50.796;4.994;2023-08-24T07:02:48;17.55;;;8.18;;
48665;SDS011;34452;50.796;4.994;2023-08-24T07:05:15;14.82;;;6.93;;
48665;SDS011;34452;50.796;4.994;2023-08-24T07:07:44;13.93;;;6.05;;
48665;SDS011;34452;50.796;4.994;2023-08-24T07:10:12;14.35;;;5.78;;
48665;SDS011;34452;50.796;4.994;2023-08-24T07:12:38;9.63;;;5.30;;
48665;SDS011;34452;50.796;4.994;2023-08-24T07:15:06;10.68;;;5.57;;
48665;SDS011;34452;50.796;4.994;2023-08-24T07:17:32;11.15;;;5.47;;
48665;SDS011;34452;50.796;4.994;2023-08-24T07:19:58;12.75;;;4.97;;
48665;SDS011;34452;50.796;4.994;2023-08-24T07:22:24;19.13;;;5.80;;
48665;SDS011;34452;50.796;4.994;2023-08-24T07:24:51;13.80;;;4.75;;
48665;SDS011;34452;50.796;4.994;2023-08-24T07:29:43;12.63;;;4.57;;
48665;SDS011;34452;50.796;4.994;2023-08-24T07:32:09;8.68;;;4.00;;
48665;SDS011;34452;50.796;4.994;2023-08-24T07:34:35;7.18;;;3.58;;
48665;SDS011;34452;50.796;4.994;2023-08-24T07:37:01;5.78;;;3.88;;
48665;SDS011;34452;50.796;4.994;2023-08-24T07:41:53;5.35;;;3.00;;
48665;SDS011;34452;50.796;4.994;2023-08-24T07:44:18;9.10;;;3.17;;
48665;SDS011;34452;50.796;4.994;2023-08-24T07:46:44;10.50;;;3.97;;
48665;SDS011;34452;50.796;4.994;2023-08-24T07:49:12;10.48;;;4.38;;
48665;SDS011;34452;50.796;4.994;2023-08-24T07:51:38;7.68;;;3.50;;
48665;SDS011;34452;50.796;4.994;2023-08-24T07:54:04;6.78;;;3.83;;
48665;SDS011;34452;50.796;4.994;2023-08-24T07:56:31;8.90;;;3.70;;
48665;SDS011;34452;50.796;4.994;2023-08-24T07:58:58;7.05;;;3.28;;
48665;SDS011;34452;50.796;4.994;2023-08-24T08:01:23;8.23;;;4.38;;
48665;SDS011;34452;50.796;4.994;2023-08-24T08:03:49;12.27;;;3.13;;
48665;SDS011;34452;50.796;4.994;2023-08-24T08:06:15;7.85;;;2.80;;
48665;SDS011;34452;50.796;4.994;2023-08-24T08:08:40;10.52;;;3.13;;
48665;SDS011;34452;50.796;4.994;2023-08-24T08:11:06;8.10;;;2.63;;
48665;SDS011;34452;50.796;4.994;2023-08-24T08:13:32;7.78;;;2.80;;
48665;SDS011;34452;50.796;4.994;2023-08-24T08:16:10;8.35;;;2.92;;
48665;SDS011;34452;50.796;4.994;2023-08-24T08:18:36;8.27;;;3.22;;
48665;SDS011;34452;50.796;4.994;2023-08-24T08:23:48;6.50;;;3.10;;
48665;SDS011;34452;50.796;4.994;2023-08-24T08:26:14;11.70;;;3.13;;
48665;SDS011;34452;50.796;4.994;2023-08-24T08:31:06;8.57;;;3.38;;
48665;SDS011;34452;50.796;4.994;2023-08-24T08:33:32;7.47;;;3.03;;
48665;SDS011;34452;50.796;4.994;2023-08-24T08:35:57;7.57;;;2.80;;
48665;SDS011;34452;50.796;4.994;2023-08-24T08:38:23;11.18;;;3.80;;
48665;SDS011;34452;50.796;4.994;2023-08-24T08:40:53;9.95;;;3.00;;
48665;SDS011;34452;50.796;4.994;2023-08-24T08:43:21;8.68;;;3.78;;
48665;SDS011;34452;50.796;4.994;2023-08-24T08:45:49;5.30;;;2.90;;
48665;SDS011;34452;50.796;4.994;2023-08-24T08:48:16;6.35;;;2.80;;
48665;SDS011;34452;50.796;4.994;2023-08-24T08:50:43;11.48;;;2.85;;
48665;SDS011;34452;50.796;4.994;2023-08-24T08:53:09;7.63;;;3.17;;
48665;SDS011;34452;50.796;4.994;2023-08-24T08:55:35;7.05;;;2.78;;
48665;SDS011;34452;50.796;4.994;2023-08-24T08:58:01;13.25;;;4.88;;
48665;SDS011;34452;50.796;4.994;2023-08-24T09:00:29;12.73;;;2.85;;
48665;SDS011;34452;50.796;4.994;2023-08-24T09:02:57;9.68;;;2.78;;
48665;SDS011;34452;50.796;4.994;2023-08-24T09:07:51;6.97;;;2.88;;
48665;SDS011;34452;50.796;4.994;2023-08-24T09:10:18;7.72;;;3.40;;
48665;SDS011;34452;50.796;4.994;2023-08-24T09:12:44;3.97;;;2.65;;
48665;SDS011;34452;50.796;4.994;2023-08-24T09:15:10;9.38;;;3.85;;
48665;SDS011;34452;50.796;4.994;2023-08-24T09:20:06;5.82;;;2.45;;
48665;SDS011;34452;50.796;4.994;2023-08-24T09:22:34;38.88;;;22.58;;
48665;SDS011;34452;50.796;4.994;2023-08-24T09:25:01;9.13;;;5.07;;
48665;SDS011;34452;50.796;4.994;2023-08-24T09:27:29;7.85;;;3.03;;
48665;SDS011;34452;50.796;4.994;2023-08-24T09:29:54;17.30;;;8.60;;
48665;SDS011;34452;50.796;4.994;2023-08-24T09:32:22;10.85;;;5.97;;
48665;SDS011;34452;50.796;4.994;2023-08-24T09:34:48;6.90;;;3.33;;
48665;SDS011;34452;50.796;4.994;2023-08-24T09:37:15;9.05;;;4.75;;
48665;SDS011;34452;50.796;4.994;2023-08-24T09:39:41;9.85;;;3.58;;
48665;SDS011;34452;50.796;4.994;2023-08-24T09:42:07;10.45;;;4.10;;
48665;SDS011;34452;50.796;4.994;2023-08-24T09:44:33;7.22;;;4.10;;
48665;SDS011;34452;50.796;4.994;2023-08-24T09:46:59;8.05;;;4.32;;
48665;SDS011;34452;50.796;4.994;2023-08-24T09:49:25;12.18;;;4.40;;
48665;SDS011;34452;50.796;4.994;2023-08-24T09:51:54;6.68;;;3.50;;
48665;SDS011;34452;50.796;4.994;2023-08-24T09:54:26;5.65;;;3.70;;
48665;SDS011;34452;50.796;4.994;2023-08-24T09:56:53;5.30;;;3.80;;
48665;SDS011;34452;50.796;4.994;2023-08-24T09:59:23;6.40;;;3.58;;
48665;SDS011;34452;50.796;4.994;2023-08-24T10:01:52;12.35;;;4.57;;
48665;SDS011;34452;50.796;4.994;2023-08-24T10:04:23;12.45;;;4.20;;
48665;SDS011;34452;50.796;4.994;2023-08-24T10:06:52;10.85;;;4.45;;
48665;SDS011;34452;50.796;4.994;2023-08-24T10:09:34;9.60;;;3.90;;
48665;SDS011;34452;50.796;4.994;2023-08-24T10:12:05;17.52;;;4.78;;
48665;SDS011;34452;50.796;4.994;2023-08-24T10:14:34;9.40;;;4.35;;
48665;SDS011;34452;50.796;4.994;2023-08-24T10:17:08;15.45;;;4.90;;
48665;SDS011;34452;50.796;4.994;2023-08-24T10:19:35;11.93;;;5.35;;
48665;SDS011;34452;50.796;4.994;2023-08-24T10:22:02;9.70;;;5.32;;
48665;SDS011;34452;50.796;4.994;2023-08-24T10:24:31;15.70;;;5.40;;
48665;SDS011;34452;50.796;4.994;2023-08-24T10:26:57;10.55;;;5.30;;
48665;SDS011;34452;50.796;4.994;2023-08-24T10:29:25;11.98;;;5.15;;
48665;SDS011;34452;50.796;4.994;2023-08-24T10:31:53;8.98;;;5.45;;
48665;SDS011;34452;50.796;4.994;2023-08-24T10:34:20;15.10;;;5.28;;
48665;SDS011;34452;50.796;4.994;2023-08-24T10:36:47;10.70;;;5.32;;
48665;SDS011;34452;50.796;4.994;2023-08-24T10:39:14;14.65;;;5.78;;
48665;SDS011;34452;50.796;4.994;2023-08-24T10:41:51;13.48;;;5.97;;
48665;SDS011;34452;50.796;4.994;2023-08-24T10:47:12;18.10;;;5.68;;
48665;SDS011;34452;50.796;4.994;2023-08-24T10:49:41;10.50;;;5.75;;
48665;SDS011;34452;50.796;4.994;2023-08-24T10:55:22;11.05;;;5.45;;
48665;SDS011;34452;50.796;4.994;2023-08-24T10:58:01;12.63;;;6.60;;
48665;SDS011;34452;50.796;4.994;2023-08-24T11:00:28;10.32;;;5.78;;
48665;SDS011;34452;50.796;4.994;2023-08-24T11:02:55;24.98;;;8.07;;
48665;SDS011;34452;50.796;4.994;2023-08-24T11:05:22;17.63;;;7.28;;
48665;SDS011;34452;50.796;4.994;2023-08-24T11:08:02;14.13;;;7.10;;
48665;SDS011;34452;50.796;4.994;2023-08-24T11:13:07;14.52;;;5.65;;
48665;SDS011;34452;50.796;4.994;2023-08-24T11:15:51;13.80;;;6.00;;
48665;SDS011;34452;50.796;4.994;2023-08-24T11:18:38;10.88;;;6.45;;
48665;SDS011;34452;50.796;4.994;2023-08-24T11:21:05;18.85;;;7.05;;
48665;SDS011;34452;50.796;4.994;2023-08-24T11:23:32;11.18;;;5.50;;
48665;SDS011;34452;50.796;4.994;2023-08-24T11:25:58;10.50;;;5.32;;
48665;SDS011;34452;50.796;4.994;2023-08-24T11:28:25;9.23;;;5.30;;
48665;SDS011;34452;50.796;4.994;2023-08-24T11:30:53;9.02;;;5.13;;
48665;SDS011;34452;50.796;4.994;2023-08-24T11:36:04;8.80;;;5.43;;
48665;SDS011;34452;50.796;4.994;2023-08-24T11:38:43;11.88;;;4.97;;
48665;SDS011;34452;50.796;4.994;2023-08-24T11:41:10;14.65;;;5.95;;
48665;SDS011;34452;50.796;4.994;2023-08-24T11:43:38;12.13;;;5.50;;
48665;SDS011;34452;50.796;4.994;2023-08-24T11:46:03;8.30;;;5.15;;
48665;SDS011;34452;50.796;4.994;2023-08-24T11:50:57;10.45;;;5.32;;
48665;SDS011;34452;50.796;4.994;2023-08-24T11:53:24;10.10;;;4.78;;
48665;SDS011;34452;50.796;4.994;2023-08-24T11:58:34;12.27;;;4.88;;
48665;SDS011;34452;50.796;4.994;2023-08-24T12:01:18;9.27;;;4.30;;
48665;SDS011;34452;50.796;4.994;2023-08-24T12:03:44;13.13;;;5.03;;
48665;SDS011;34452;50.796;4.994;2023-08-24T12:06:11;9.18;;;4.95;;
48665;SDS011;34452;50.796;4.994;2023-08-24T12:08:40;9.45;;;5.13;;
48665;SDS011;34452;50.796;4.994;2023-08-24T12:13:52;11.65;;;4.90;;
48665;SDS011;34452;50.796;4.994;2023-08-24T12:16:20;15.65;;;5.25;;
48665;SDS011;34452;50.796;4.994;2023-08-24T12:18:51;12.07;;;4.93;;
48665;SDS011;34452;50.796;4.994;2023-08-24T12:21:17;8.63;;;4.63;;
48665;SDS011;34452;50.796;4.994;2023-08-24T12:23:44;13.20;;;4.78;;
48665;SDS011;34452;50.796;4.994;2023-08-24T12:26:19;9.98;;;4.75;;
48665;SDS011;34452;50.796;4.994;2023-08-24T12:31:30;12.68;;;5.03;;
48665;SDS011;34452;50.796;4.994;2023-08-24T12:36:41;12.15;;;5.07;;
48665;SDS011;34452;50.796;4.994;2023-08-24T12:39:10;11.60;;;4.35;;
48665;SDS011;34452;50.796;4.994;2023-08-24T12:41:38;7.20;;;3.88;;
48665;SDS011;34452;50.796;4.994;2023-08-24T12:44:04;7.20;;;4.03;;
48665;SDS011;34452;50.796;4.994;2023-08-24T12:48:56;6.15;;;3.78;;
48665;SDS011;34452;50.796;4.994;2023-08-24T12:51:22;13.80;;;4.88;;
48665;SDS011;34452;50.796;4.994;2023-08-24T12:53:49;13.23;;;4.57;;
48665;SDS011;34452;50.796;4.994;2023-08-24T12:56:15;11.52;;;3.60;;
48665;SDS011;34452;50.796;4.994;2023-08-24T12:58:41;10.63;;;2.85;;
48665;SDS011;34452;50.796;4.994;2023-08-24T13:01:07;8.35;;;3.15;;
48665;SDS011;34452;50.796;4.994;2023-08-24T13:03:33;7.07;;;2.90;;
48665;SDS011;34452;50.796;4.994;2023-08-24T13:06:00;8.20;;;2.72;;
48665;SDS011;34452;50.796;4.994;2023-08-24T13:08:26;3.88;;;2.30;;
48665;SDS011;34452;50.796;4.994;2023-08-24T13:10:52;5.75;;;2.53;;
48665;SDS011;34452;50.796;4.994;2023-08-24T13:13:18;4.93;;;2.63;;
48665;SDS011;34452;50.796;4.994;2023-08-24T13:15:45;8.88;;;2.65;;
48665;SDS011;34452;50.796;4.994;2023-08-24T13:18:14;10.90;;;3.03;;
48665;SDS011;34452;50.796;4.994;2023-08-24T13:20:39;7.35;;;2.45;;
48665;SDS011;34452;50.796;4.994;2023-08-24T13:23:05;7.93;;;2.75;;
48665;SDS011;34452;50.796;4.994;2023-08-24T13:25:31;7.25;;;2.47;;
48665;SDS011;34452;50.796;4.994;2023-08-24T13:27:57;8.05;;;3.10;;
48665;SDS011;34452;50.796;4.994;2023-08-24T13:30:23;13.90;;;3.47;;
48665;SDS011;34452;50.796;4.994;2023-08-24T13:32:48;5.60;;;2.35;;
48665;SDS011;34452;50.796;4.994;2023-08-24T13:35:14;7.72;;;2.63;;
48665;SDS011;34452;50.796;4.994;2023-08-24T13:37:40;5.32;;;2.38;;
48665;SDS011;34452;50.796;4.994;2023-08-24T13:40:06;8.60;;;2.53;;
48665;SDS011;34452;50.796;4.994;2023-08-24T13:42:33;4.45;;;2.13;;
48665;SDS011;34452;50.796;4.994;2023-08-24T13:44:58;15.90;;;2.80;;
48665;SDS011;34452;50.796;4.994;2023-08-24T13:47:24;8.63;;;2.60;;
48665;SDS011;34452;50.796;4.994;2023-08-24T13:49:50;7.82;;;2.60;;
48665;SDS011;34452;50.796;4.994;2023-08-24T13:52:16;5.55;;;2.08;;
48665;SDS011;34452;50.796;4.994;2023-08-24T13:54:44;10.10;;;2.42;;
48665;SDS011;34452;50.796;4.994;2023-08-24T13:57:10;7.78;;;2.03;;
48665;SDS011;34452;50.796;4.994;2023-08-24T13:59:35;6.47;;;2.47;;
48665;SDS011;34452;50.796;4.994;2023-08-24T14:02:01;5.30;;;1.65;;
48665;SDS011;34452;50.796;4.994;2023-08-24T14:04:28;10.63;;;2.20;;
48665;SDS011;34452;50.796;4.994;2023-08-24T14:06:54;6.20;;;1.92;;
48665;SDS011;34452;50.796;4.994;2023-08-24T14:09:20;6.18;;;1.80;;
48665;SDS011;34452;50.796;4.994;2023-08-24T14:11:46;19.30;;;3.63;;
48665;SDS011;34452;50.796;4.994;2023-08-24T14:14:12;8.82;;;1.73;;
48665;SDS011;34452;50.796;4.994;2023-08-24T14:16:38;9.38;;;1.67;;
48665;SDS011;34452;50.796;4.994;2023-08-24T14:19:04;5.63;;;2.00;;
48665;SDS011;34452;50.796;4.994;2023-08-24T14:21:30;6.18;;;2.30;;
48665;SDS011;34452;50.796;4.994;2023-08-24T14:23:56;5.90;;;1.73;;
48665;SDS011;34452;50.796;4.994;2023-08-24T14:26:23;11.05;;;1.65;;
48665;SDS011;34452;50.796;4.994;2023-08-24T14:31:33;5.35;;;1.38;;
48665;SDS011;34452;50.796;4.994;2023-08-24T14:33:59;5.82;;;1.48;;
48665;SDS011;34452;50.796;4.994;2023-08-24T14:36:25;4.32;;;1.42;;
48665;SDS011;34452;50.796;4.994;2023-08-24T14:38:51;5.57;;;1.60;;
48665;SDS011;34452;50.796;4.994;2023-08-24T14:41:17;3.97;;;1.23;;
48665;SDS011;34452;50.796;4.994;2023-08-24T14:43:43;4.40;;;1.52;;
48665;SDS011;34452;50.796;4.994;2023-08-24T14:48:35;4.85;;;1.70;;
48665;SDS011;34452;50.796;4.994;2023-08-24T14:51:01;4.70;;;1.35;;
48665;SDS011;34452;50.796;4.994;2023-08-24T14:53:27;3.33;;;1.27;;
48665;SDS011;34452;50.796;4.994;2023-08-24T14:55:54;9.30;;;1.38;;
48665;SDS011;34452;50.796;4.994;2023-08-24T14:58:21;3.80;;;1.23;;
48665;SDS011;34452;50.796;4.994;2023-08-24T15:00:49;2.65;;;0.90;;
48665;SDS011;34452;50.796;4.994;2023-08-24T15:03:15;6.30;;;1.42;;
48665;SDS011;34452;50.796;4.994;2023-08-24T15:08:29;3.58;;;1.00;;
48665;SDS011;34452;50.796;4.994;2023-08-24T15:10:55;3.75;;;0.88;;
48665;SDS011;34452;50.796;4.994;2023-08-24T15:13:23;2.58;;;1.00;;
48665;SDS011;34452;50.796;4.994;2023-08-24T15:15:49;2.95;;;1.10;;
48665;SDS011;34452;50.796;4.994;2023-08-24T15:18:17;4.28;;;0.93;;
48665;SDS011;34452;50.796;4.994;2023-08-24T15:20:42;4.13;;;1.30;;
48665;SDS011;34452;50.796;4.994;2023-08-24T15:23:09;6.93;;;1.45;;
48665;SDS011;34452;50.796;4.994;2023-08-24T15:25:35;5.07;;;1.10;;
48665;SDS011;34452;50.796;4.994;2023-08-24T15:28:01;2.67;;;0.93;;
48665;SDS011;34452;50.796;4.994;2023-08-24T15:30:27;9.07;;;1.05;;
48665;SDS011;34452;50.796;4.994;2023-08-24T15:32:52;3.10;;;1.10;;
48665;SDS011;34452;50.796;4.994;2023-08-24T15:35:18;6.03;;;0.80;;
48665;SDS011;34452;50.796;4.994;2023-08-24T15:37:44;5.70;;;0.80;;
48665;SDS011;34452;50.796;4.994;2023-08-24T15:40:10;3.20;;;1.00;;
48665;SDS011;34452;50.796;4.994;2023-08-24T15:42:36;5.00;;;0.90;;
48665;SDS011;34452;50.796;4.994;2023-08-24T15:45:02;3.42;;;1.10;;
48665;SDS011;34452;50.796;4.994;2023-08-24T15:47:28;4.10;;;1.23;;
48665;SDS011;34452;50.796;4.994;2023-08-24T15:49:53;1.95;;;0.90;;
48665;SDS011;34452;50.796;4.994;2023-08-24T15:52:19;2.03;;;1.00;;
48665;SDS011;34452;50.796;4.994;2023-08-24T15:54:45;2.85;;;0.90;;
48665;SDS011;34452;50.796;4.994;2023-08-24T15:57:12;2.92;;;0.98;;
48665;SDS011;34452;50.796;4.994;2023-08-24T15:59:39;3.13;;;1.25;;